This is the latest recevied weather packets stored in our database for station/object N2XP-2. If no packets are shown the sender has not sent any weather packets the latest 10 day(s).
| Time | Temp. | Humidity | Pressure | Rain* | Wind** | Luminosity | Snow |
|---|---|---|---|---|---|---|---|
| 1777963994 | 15° C | 84% | 1010.5 hPa | 0.25 mm | 0.89 m/s, 297° | - | - |
| 1777963861 | 15° C | 84% | 1010.5 hPa | 0.25 mm | 0.89 m/s, 297° | - | - |
| 1777963562 | 15.56° C | 83% | 1010.6 hPa | 0 mm | 0.89 m/s, 280° | - | - |
| 1777963302 | 15.56° C | 82% | 1010.7 hPa | 0 mm | 1.34 m/s, 210° | - | - |
| 1777963294 | 15.56° C | 81% | 1010.7 hPa | 0 mm | 1.79 m/s, 329° | - | - |
| 1777963260 | 15.56° C | 83% | 1010.5 hPa | 0 mm | 0.45 m/s, 239° | - | - |
| 1777962960 | 15.56° C | 83% | 1010.5 hPa | 0 mm | 0.45 m/s, 246° | - | - |
| 1777962661 | 15.56° C | 82% | 1010.5 hPa | 0 mm | 0.45 m/s, 215° | - | - |
| 1777962359 | 15.56° C | 82% | 1010.6 hPa | 0 mm | 1.34 m/s, 229° | - | - |
| 1777962060 | 15.56° C | 82% | 1010.6 hPa | 0 mm | 0.89 m/s, 188° | - | - |
| 1777961761 | 15.56° C | 82% | 1010.7 hPa | 0 mm | 1.34 m/s, 210° | - | - |
| 1777961458 | 15.56° C | 81% | 1010.7 hPa | 0 mm | 1.79 m/s, 329° | - | - |
| 1777961382 | 15.56° C | 80% | 1010.9 hPa | 0.25 mm | 0.45 m/s, 225° | - | - |
| 1777961195 | 15.56° C | 81% | 1010.7 hPa | 0 mm | 1.34 m/s, 270° | - | - |
| 1777961159 | 15.56° C | 81% | 1010.7 hPa | 0 mm | 1.34 m/s, 270° | - | - |
| 1777960860 | 15.56° C | 81% | 1010.8 hPa | 0 mm | 1.79 m/s, 255° | - | - |
| 1777960557 | 15.56° C | 80% | 1010.8 hPa | 0 mm | 0 m/s | - | - |
| 1777960257 | 15.56° C | 80% | 1010.8 hPa | 0 mm | 0.89 m/s, 255° | - | - |
| 1777959958 | 15.56° C | 80% | 1010.9 hPa | 0.25 mm | 0.45 m/s, 225° | - | - |
| 1777959688 | 15.56° C | 80% | 1010.8 hPa | 0.25 mm | 0.89 m/s, 194° | - | - |
| 1777959655 | 15.56° C | 80% | 1010.8 hPa | 0.25 mm | 0.89 m/s, 194° | - | - |
| 1777959356 | 15.56° C | 79% | 1010.8 hPa | 0.25 mm | 0.45 m/s, 218° | - | - |
| 1777959057 | 15.56° C | 79% | 1010.7 hPa | 0.25 mm | 0.45 m/s, 243° | - | - |
| 1777958755 | 16.11° C | 79% | 1010.8 hPa | 0.25 mm | 0.45 m/s, 179° | - | - |
| 1777958456 | 16.11° C | 78% | 1010.8 hPa | 0.25 mm | 1.34 m/s, 242° | - | - |
* Rain latest hour (hover to see other rain measurements)
** Current wind speed in m/s (hover to see current wind gust speed)